This is the latest recevied weather packets stored in our database for station/object WX5RP. If no packets are shown the sender has not sent any weather packets the latest 10 day(s).
| Time | Temp. | Humidity | Pressure | Rain* | Wind** | Luminosity | Snow |
|---|---|---|---|---|---|---|---|
| 1787992815 | 7.78° C | 80% | 1018.3 hPa | 0 mm | - | 0 W/m² | - |
| 1787992217 | 8.33° C | 78% | 1018.3 hPa | 0 mm | - | 0 W/m² | - |
| 1787991617 | 8.89° C | 77% | 1018.4 hPa | 0 mm | - | 0 W/m² | - |
| 1787991017 | 9.44° C | 76% | 1018.8 hPa | 0 mm | - | 0 W/m² | - |
| 1787990417 | 10° C | 74% | 1018.8 hPa | 0 mm | - | 0 W/m² | - |
| 1787989817 | 10° C | 72% | 1018.5 hPa | 0 mm | - | 0 W/m² | - |
| 1787989217 | 11.11° C | 68% | 1018.5 hPa | 0 mm | - | 0 W/m² | - |
| 1787988617 | 11.67° C | 67% | 1018.5 hPa | 0 mm | - | 0 W/m² | - |
| 1787988017 | 11.67° C | 67% | 1018.6 hPa | 0 mm | - | 0 W/m² | - |
| 1787987416 | 12.22° C | 64% | 1018 hPa | 0 mm | - | 0 W/m² | - |
| 1787986815 | 12.78° C | 62% | 1018.3 hPa | 0 mm | - | 0 W/m² | - |
| 1787986216 | 13.33° C | 61% | 1018.2 hPa | 0 mm | - | 0 W/m² | - |
| 1787985616 | 13.33° C | 59% | 1017.6 hPa | 0 mm | - | 0 W/m² | - |
| 1787985016 | 13.89° C | 57% | 1017.6 hPa | 0 mm | - | 0 W/m² | - |
| 1787984416 | 13.89° C | 57% | 1017.5 hPa | 0 mm | - | 0 W/m² | - |
| 1787983816 | 14.44° C | 56% | 1018.1 hPa | 0 mm | - | 0 W/m² | - |
| 1787983216 | 14.44° C | 55% | 1017.8 hPa | 0 mm | - | 0 W/m² | - |
| 1787982616 | 14.44° C | 56% | 1017.7 hPa | 0 mm | - | 0 W/m² | - |
| 1787982016 | 14.44° C | 56% | 1017.2 hPa | 0 mm | - | 0 W/m² | - |
| 1787981416 | 14.44° C | 56% | 1016.9 hPa | 0 mm | - | 0 W/m² | - |
| 1787980816 | 14.44° C | 57% | 1017 hPa | 0 mm | - | 0 W/m² | - |
| 1787980216 | 13.89° C | 55% | 1018.1 hPa | 0 mm | - | 0 W/m² | - |
| 1787979616 | 13.33° C | 57% | 1017.5 hPa | 0 mm | - | 0 W/m² | - |
| 1787979016 | 13.33° C | 60% | 1017.1 hPa | 0 mm | - | 0 W/m² | - |
| 1787978416 | 14.44° C | 54% | 1016.8 hPa | 0 mm | - | 0 W/m² | - |
* Rain latest hour (hover to see other rain measurements)
** Current wind speed in m/s (hover to see current wind gust speed)